Time;durP1;ratioP1;P1;durP2;ratioP2;P2;SDS_P1;SDS_P2;PMS_P1;PMS_P2;Temp;Humidity;BMP_temperature;BMP_pressure;BME280_temperature;BME280_humidity;BME280_pressure;Samples;Min_cycle;Max_cycle;Signal;HPM_P1;HPM_P2
2023/01/06 00:00:17;;;;;;;17.60;7.67;;;8.00;99.90;;;;;;5083685;28;20552;-80
2023/01/06 00:02:44;;;;;;;13.30;6.00;;;8.00;99.90;;;;;;5073405;28;20203;-80
2023/01/06 00:05:11;;;;;;;15.67;6.60;;;8.00;99.90;;;;;;5055567;28;20201;-80
2023/01/06 00:07:38;;;;;;;15.00;5.87;;;8.00;99.90;;;;;;5073582;28;20263;-80
2023/01/06 00:10:05;;;;;;;13.30;6.30;;;8.00;99.90;;;;;;5073542;28;20193;-79
2023/01/06 00:12:32;;;;;;;15.40;6.77;;;8.00;99.90;;;;;;5073438;28;20220;-80
2023/01/06 00:14:58;;;;;;;14.93;6.13;;;8.00;99.90;;;;;;5073083;28;20652;-80
2023/01/06 00:17:26;;;;;;;15.80;6.27;;;8.00;99.90;;;;;;5073328;28;20223;-79
2023/01/06 00:19:53;;;;;;;13.20;6.40;;;8.00;99.90;;;;;;5072711;28;20199;-80
2023/01/06 00:22:19;;;;;;;11.43;6.40;;;8.00;99.90;;;;;;5073671;28;20201;-80
2023/01/06 00:24:46;;;;;;;13.50;5.90;;;8.00;99.90;;;;;;5072982;28;20225;-80
2023/01/06 00:27:13;;;;;;;14.77;5.83;;;8.00;99.90;;;;;;5073166;28;20201;-79
2023/01/06 00:29:39;;;;;;;11.93;6.00;;;8.00;99.90;;;;;;5073292;28;20261;-78
2023/01/06 00:32:06;;;;;;;12.73;5.93;;;8.00;99.90;;;;;;5073420;28;20270;-79
2023/01/06 00:34:34;;;;;;;12.47;6.20;;;8.00;99.90;;;;;;5073265;28;20656;-79
2023/01/06 00:37:01;;;;;;;9.93;5.50;;;8.00;99.90;;;;;;5073374;28;20266;-79
2023/01/06 00:39:27;;;;;;;16.23;6.63;;;8.00;99.90;;;;;;5073767;28;20599;-79
2023/01/06 00:42:03;;;;;;;14.50;6.57;;;8.00;99.90;;;;;;5074458;28;20201;-79
2023/01/06 00:44:30;;;;;;;10.93;6.43;;;8.00;99.90;;;;;;5079576;28;20197;-78
2023/01/06 00:46:56;;;;;;;11.80;6.30;;;8.00;99.90;;;;;;5084982;28;20254;-79
2023/01/06 00:49:23;;;;;;;13.90;6.30;;;8.10;99.90;;;;;;5073248;28;20200;-79
2023/01/06 00:51:51;;;;;;;11.50;6.33;;;8.10;99.90;;;;;;5073491;28;20554;-80
2023/01/06 00:54:18;;;;;;;13.97;6.60;;;8.10;99.90;;;;;;5073254;28;20603;-80
2023/01/06 00:56:47;;;;;;;11.90;6.60;;;8.10;99.90;;;;;;5073110;28;20565;-79
2023/01/06 00:59:16;;;;;;;11.83;6.67;;;8.10;99.90;;;;;;5073041;28;20659;-80
2023/01/06 01:01:43;;;;;;;12.70;6.43;;;8.10;99.90;;;;;;5073143;28;20208;-80
2023/01/06 01:04:11;;;;;;;10.00;6.27;;;8.10;99.90;;;;;;5073132;28;20665;-79
2023/01/06 01:06:38;;;;;;;12.60;6.67;;;8.10;99.90;;;;;;5073168;28;20246;-79
2023/01/06 01:09:07;;;;;;;12.10;6.73;;;8.10;99.90;;;;;;5073043;28;20201;-80
2023/01/06 01:14:19;;;;;;;9.13;5.37;;;8.10;99.90;;;;;;5072972;28;20721;-79
2023/01/06 01:16:46;;;;;;;10.07;6.63;;;8.10;99.90;;;;;;5072937;28;20247;-79
2023/01/06 01:19:14;;;;;;;11.77;6.63;;;8.10;99.90;;;;;;5072936;28;20199;-79
2023/01/06 01:21:40;;;;;;;11.17;6.43;;;8.10;99.90;;;;;;5072470;28;20201;-80
2023/01/06 01:24:08;;;;;;;12.93;6.80;;;8.10;99.90;;;;;;5072172;28;20201;-79
2023/01/06 01:26:35;;;;;;;11.47;6.93;;;8.20;99.90;;;;;;5072423;28;20220;-79
2023/01/06 01:29:02;;;;;;;11.40;6.40;;;8.20;99.90;;;;;;5072420;28;20615;-79
2023/01/06 01:31:29;;;;;;;11.07;6.33;;;8.30;99.90;;;;;;5073680;28;20197;-80
2023/01/06 01:33:55;;;;;;;9.40;5.90;;;8.30;99.90;;;;;;5075943;28;20270;-79
2023/01/06 01:36:22;;;;;;;9.60;6.63;;;8.40;99.90;;;;;;5075940;28;20625;-78
2023/01/06 01:38:49;;;;;;;7.20;5.53;;;8.40;99.90;;;;;;5076350;28;20193;-79
2023/01/06 01:41:21;;;;;;;9.90;6.10;;;8.40;99.90;;;;;;5077289;28;20611;-79
2023/01/06 01:43:49;;;;;;;10.20;6.40;;;8.50;99.90;;;;;;5078268;28;20254;-79
2023/01/06 01:46:21;;;;;;;9.83;5.83;;;8.50;99.90;;;;;;5080979;28;20197;-78
2023/01/06 01:48:48;;;;;;;8.60;5.80;;;8.50;99.90;;;;;;5081982;28;20227;-79
2023/01/06 01:51:19;;;;;;;9.43;6.13;;;8.60;99.90;;;;;;5077842;28;20258;-78
2023/01/06 01:53:48;;;;;;;7.13;6.43;;;8.60;99.90;;;;;;5078091;28;20221;-79
2023/01/06 01:56:21;;;;;;;8.17;5.90;;;8.60;99.90;;;;;;5080221;28;20197;-78
2023/01/06 01:58:53;;;;;;;7.93;5.90;;;8.60;99.90;;;;;;5077987;28;20720;-78
2023/01/06 02:01:20;;;;;;;9.40;5.40;;;8.60;99.90;;;;;;5079621;28;20201;-78
2023/01/06 02:03:47;;;;;;;6.90;5.70;;;8.50;99.90;;;;;;5077969;28;20653;-79
2023/01/06 02:06:16;;;;;;;11.53;6.53;;;8.50;99.90;;;;;;5077248;28;20208;-79
2023/01/06 02:08:49;;;;;;;7.90;5.97;;;8.50;99.90;;;;;;5075266;28;20200;-80
2023/01/06 02:11:15;;;;;;;11.17;6.30;;;8.50;99.90;;;;;;5075132;28;20196;-79
2023/01/06 02:13:46;;;;;;;9.77;6.13;;;8.50;99.90;;;;;;5075358;28;20224;-79
2023/01/06 02:16:19;;;;;;;9.57;5.97;;;8.50;99.90;;;;;;5075016;28;20280;-79
2023/01/06 02:18:57;;;;;;;7.43;6.17;;;8.60;99.90;;;;;;5075199;28;20235;-79
2023/01/06 02:21:38;;;;;;;6.93;5.87;;;8.60;99.90;;;;;;5074841;28;20665;-79
2023/01/06 02:24:37;;;;;;;7.73;5.80;;;8.60;99.90;;;;;;5074835;28;20197;-79
2023/01/06 02:27:31;;;;;;;8.53;5.70;;;8.60;99.90;;;;;;5071393;28;20223;-79
2023/01/06 02:30:39;;;;;;;8.70;6.47;;;8.60;99.90;;;;;;5074706;28;20525;-79
2023/01/06 02:33:18;;;;;;;6.63;5.67;;;8.50;99.90;;;;;;5054215;28;20282;-79
2023/01/06 02:36:13;;;;;;;10.73;6.50;;;8.40;99.90;;;;;;5074759;28;20197;-79
2023/01/06 02:38:52;;;;;;;7.97;6.00;;;8.40;99.90;;;;;;5054328;28;20193;-78
2023/01/06 02:41:30;;;;;;;8.50;6.47;;;8.50;99.90;;;;;;5074459;28;20230;-78
2023/01/06 02:44:03;;;;;;;7.67;6.27;;;8.50;99.90;;;;;;5074051;28;20201;-78
2023/01/06 02:46:52;;;;;;;8.97;6.00;;;8.50;99.90;;;;;;5074537;28;20197;-78
2023/01/06 02:49:27;;;;;;;8.40;6.20;;;8.50;99.90;;;;;;5074278;28;20223;-78
2023/01/06 02:51:58;;;;;;;10.13;6.70;;;8.50;99.90;;;;;;5074508;28;20258;-78
2023/01/06 02:54:31;;;;;;;7.93;6.50;;;8.50;99.90;;;;;;5074439;28;20221;-78
2023/01/06 02:57:16;;;;;;;10.13;6.50;;;8.50;99.90;;;;;;5074309;28;20247;-78
2023/01/06 02:59:50;;;;;;;11.10;6.57;;;8.50;99.90;;;;;;5074204;28;20205;-77
2023/01/06 03:02:19;;;;;;;8.20;6.50;;;8.50;99.90;;;;;;5074502;28;20196;-78
2023/01/06 03:04:50;;;;;;;8.23;6.47;;;8.50;99.90;;;;;;5074306;28;20197;-78
2023/01/06 03:07:20;;;;;;;7.83;6.90;;;8.50;99.90;;;;;;5074432;28;20197;-78
2023/01/06 03:09:50;;;;;;;12.13;6.83;;;8.50;99.90;;;;;;5074178;28;20223;-78
2023/01/06 03:12:22;;;;;;;8.97;6.60;;;8.50;99.90;;;;;;5090456;28;20223;-77
2023/01/06 03:14:54;;;;;;;9.20;7.30;;;8.50;99.90;;;;;;5086206;28;20197;-77
2023/01/06 03:17:21;;;;;;;9.83;6.90;;;8.50;99.90;;;;;;5074489;28;20247;-77
2023/01/06 03:19:49;;;;;;;8.07;6.60;;;8.50;99.90;;;;;;5074293;28;20204;-78
2023/01/06 03:22:16;;;;;;;7.27;6.40;;;8.50;99.90;;;;;;5073735;28;20192;-77
2023/01/06 03:24:44;;;;;;;10.03;6.57;;;8.50;99.90;;;;;;5073433;28;20781;-77
2023/01/06 03:27:10;;;;;;;8.03;6.70;;;8.50;99.90;;;;;;5073529;28;20257;-77
2023/01/06 03:29:38;;;;;;;6.70;5.93;;;8.50;99.90;;;;;;5073859;28;20243;-78
2023/01/06 03:32:11;;;;;;;7.13;5.30;;;8.40;99.90;;;;;;5073969;28;20197;-78
2023/01/06 03:34:57;;;;;;;7.20;5.80;;;8.50;99.90;;;;;;5073447;28;20691;-77
2023/01/06 03:37:31;;;;;;;8.53;6.03;;;8.50;99.90;;;;;;5073386;28;20205;-77
2023/01/06 03:40:08;;;;;;;6.83;6.13;;;8.50;99.90;;;;;;5073538;28;20247;-77
2023/01/06 03:45:40;;;;;;;6.00;5.00;;;8.50;99.90;;;;;;5073349;28;20316;-77
2023/01/06 03:48:11;;;;;;;5.97;5.10;;;8.50;99.90;;;;;;5073518;28;20207;-77
2023/01/06 03:50:45;;;;;;;8.20;5.23;;;8.50;99.90;;;;;;5073457;28;20603;-77
2023/01/06 03:53:22;;;;;;;7.23;5.37;;;8.50;99.90;;;;;;5073408;28;20216;-77
2023/01/06 03:55:57;;;;;;;5.47;4.97;;;8.50;99.90;;;;;;5072420;28;20254;-76
2023/01/06 03:58:26;;;;;;;5.43;4.83;;;8.50;99.90;;;;;;5073448;28;20258;-76
2023/01/06 04:00:53;;;;;;;10.37;4.97;;;8.50;99.90;;;;;;5082468;28;20344;-75
2023/01/06 04:03:24;;;;;;;5.97;4.77;;;8.50;99.90;;;;;;5079620;28;20274;-77
2023/01/06 04:05:53;;;;;;;6.20;4.53;;;8.50;99.90;;;;;;5073395;28;20197;-76
2023/01/06 04:08:20;;;;;;;5.17;4.33;;;8.60;99.90;;;;;;5073212;28;20575;-76
2023/01/06 04:10:46;;;;;;;5.60;4.70;;;8.50;99.90;;;;;;5072771;28;20197;-76
2023/01/06 04:13:12;;;;;;;5.10;4.60;;;8.50;99.90;;;;;;5073015;28;20266;-76
2023/01/06 04:15:39;;;;;;;5.77;4.70;;;8.50;99.90;;;;;;5073141;28;20209;-76
2023/01/06 04:18:05;;;;;;;7.47;5.07;;;8.50;99.90;;;;;;5072924;28;20196;-76
2023/01/06 04:20:32;;;;;;;5.03;4.50;;;8.50;99.90;;;;;;5073028;28;20201;-76
2023/01/06 04:23:00;;;;;;;4.87;4.37;;;8.50;99.90;;;;;;5072830;28;20247;-76
2023/01/06 04:25:26;;;;;;;5.73;4.67;;;8.50;99.90;;;;;;5072529;28;20233;-76
2023/01/06 04:27:53;;;;;;;5.33;4.70;;;8.50;99.90;;;;;;5072980;28;20226;-76
2023/01/06 04:30:20;;;;;;;6.07;4.27;;;8.50;99.90;;;;;;5072911;28;20208;-75
2023/01/06 04:32:46;;;;;;;5.13;4.27;;;8.50;99.90;;;;;;5072774;28;20197;-76
2023/01/06 04:35:13;;;;;;;5.47;4.17;;;8.60;99.90;;;;;;5072737;28;20731;-75
2023/01/06 04:37:40;;;;;;;9.23;4.60;;;8.60;99.90;;;;;;5072624;28;20258;-75
2023/01/06 04:40:09;;;;;;;6.33;5.00;;;8.60;99.90;;;;;;5072847;28;20193;-76
2023/01/06 04:45:16;;;;;;;5.07;4.57;;;8.60;99.90;;;;;;5071672;28;20674;-75
2023/01/06 04:47:43;;;;;;;6.03;4.37;;;8.60;99.90;;;;;;5072619;28;20227;-75
2023/01/06 04:50:10;;;;;;;5.70;4.50;;;8.60;99.90;;;;;;5072482;28;20244;-75
2023/01/06 04:52:37;;;;;;;4.10;3.70;;;8.60;99.90;;;;;;5072695;28;20197;-75
2023/01/06 04:55:04;;;;;;;4.33;3.77;;;8.50;99.90;;;;;;5072522;28;20225;-76
2023/01/06 04:57:32;;;;;;;4.00;3.70;;;8.50;99.90;;;;;;5072641;28;20193;-75
2023/01/06 04:59:59;;;;;;;4.63;4.03;;;8.50;99.90;;;;;;5072468;28;20201;-76
2023/01/06 05:02:25;;;;;;;4.80;3.80;;;8.30;99.90;;;;;;5072277;28;20626;-74
2023/01/06 05:04:52;;;;;;;4.50;3.73;;;8.30;99.90;;;;;;5072203;28;20204;-77
2023/01/06 05:07:18;;;;;;;4.07;3.57;;;8.30;99.90;;;;;;5075267;28;20197;-76
2023/01/06 05:09:45;;;;;;;4.57;3.83;;;8.30;99.90;;;;;;5076163;28;20718;-76
2023/01/06 05:12:12;;;;;;;4.53;3.80;;;8.30;99.90;;;;;;5075997;28;20234;-76
2023/01/06 05:14:39;;;;;;;5.93;3.93;;;8.20;99.90;;;;;;5076179;28;20247;-76
2023/01/06 05:17:06;;;;;;;5.83;3.90;;;8.20;99.90;;;;;;5076285;28;20197;-76
2023/01/06 05:19:33;;;;;;;7.80;3.70;;;8.10;99.90;;;;;;5076077;28;20652;-76
2023/01/06 05:21:59;;;;;;;5.00;4.17;;;8.00;99.90;;;;;;5076349;28;20196;-76
2023/01/06 05:24:26;;;;;;;4.80;4.27;;;8.00;99.90;;;;;;5075923;28;20239;-76
2023/01/06 05:26:53;;;;;;;5.87;4.10;;;8.00;99.90;;;;;;5076091;28;20197;-76
2023/01/06 05:29:20;;;;;;;4.93;3.90;;;8.00;99.90;;;;;;5075878;28;20282;-76
2023/01/06 05:31:48;;;;;;;5.13;3.70;;;7.90;99.90;;;;;;5075778;28;20537;-76
2023/01/06 05:34:14;;;;;;;5.37;3.67;;;8.00;99.90;;;;;;5075897;28;20220;-76
2023/01/06 05:36:41;;;;;;;5.40;4.40;;;8.10;99.90;;;;;;5075837;28;20255;-74
2023/01/06 05:39:08;;;;;;;4.03;3.63;;;8.20;99.90;;;;;;5075743;28;20197;-75
2023/01/06 05:41:34;;;;;;;4.67;3.53;;;8.30;99.90;;;;;;5075672;28;20250;-75
2023/01/06 05:44:01;;;;;;;7.17;4.23;;;8.30;99.90;;;;;;5075664;28;20205;-73
2023/01/06 05:46:28;;;;;;;4.70;4.13;;;8.20;99.90;;;;;;5075567;28;20208;-74
2023/01/06 05:48:56;;;;;;;4.67;4.10;;;8.20;99.90;;;;;;5075661;28;20196;-74
2023/01/06 05:51:22;;;;;;;4.30;3.90;;;8.30;99.90;;;;;;5075538;28;20201;-74
2023/01/06 05:53:49;;;;;;;5.20;4.33;;;8.30;99.90;;;;;;5075409;28;20266;-73
2023/01/06 05:56:17;;;;;;;6.87;3.77;;;8.40;99.90;;;;;;5075423;28;20197;-74
2023/01/06 05:58:45;;;;;;;4.70;3.30;;;8.50;99.90;;;;;;5075316;28;20201;-74
2023/01/06 06:01:16;;;;;;;4.33;3.77;;;8.50;99.90;;;;;;5075028;28;20246;-74
2023/01/06 06:03:42;;;;;;;4.27;3.27;;;8.50;99.90;;;;;;5075463;28;20610;-74
2023/01/06 06:06:11;;;;;;;4.43;3.87;;;8.60;99.90;;;;;;5075259;28;20217;-74
2023/01/06 06:08:37;;;;;;;4.30;3.80;;;8.60;99.90;;;;;;5075252;28;20197;-74
2023/01/06 06:11:05;;;;;;;3.70;3.40;;;8.60;99.90;;;;;;5075197;28;20201;-74
2023/01/06 06:13:32;;;;;;;3.30;3.00;;;8.70;99.90;;;;;;5074863;28;20277;-74
2023/01/06 06:16:06;;;;;;;4.90;3.53;;;8.70;99.90;;;;;;5074952;28;20529;-74
2023/01/06 06:18:33;;;;;;;3.77;3.47;;;8.70;99.90;;;;;;5074103;28;20201;-75
2023/01/06 06:21:03;;;;;;;3.30;2.97;;;8.70;99.90;;;;;;5074822;28;20664;-75
2023/01/06 06:23:31;;;;;;;4.97;3.40;;;8.70;99.90;;;;;;5074923;28;20204;-74
2023/01/06 06:25:58;;;;;;;3.50;3.20;;;8.70;99.90;;;;;;5075077;28;20228;-73
2023/01/06 06:28:24;;;;;;;3.47;3.10;;;8.70;99.90;;;;;;5082802;28;20201;-73
2023/01/06 06:30:51;;;;;;;3.30;3.00;;;8.70;99.90;;;;;;5078799;28;20246;-74
2023/01/06 06:33:18;;;;;;;4.03;3.30;;;8.70;99.90;;;;;;5074796;28;20197;-74
2023/01/06 06:35:45;;;;;;;3.50;3.13;;;8.70;99.90;;;;;;5074762;28;20254;-76
2023/01/06 06:38:11;;;;;;;4.13;2.93;;;8.70;99.90;;;;;;5074734;28;20193;-76
2023/01/06 06:40:43;;;;;;;3.30;3.00;;;8.70;99.90;;;;;;5074537;28;20198;-75
2023/01/06 06:43:10;;;;;;;3.57;3.23;;;8.70;99.90;;;;;;5074806;28;20292;-73
2023/01/06 06:45:36;;;;;;;5.17;3.70;;;8.70;99.90;;;;;;5074647;28;20197;-73
2023/01/06 06:48:03;;;;;;;3.30;3.00;;;8.70;99.90;;;;;;5074381;28;20246;-74
2023/01/06 06:50:30;;;;;;;6.90;6.20;;;8.70;99.90;;;;;;5074352;28;20197;-74
2023/01/06 06:52:56;;;;;;;3.77;3.40;;;8.80;99.90;;;;;;5074221;28;20198;-74
2023/01/06 06:55:23;;;;;;;3.70;3.23;;;8.70;99.90;;;;;;5074068;28;20220;-74
2023/01/06 06:57:51;;;;;;;3.50;3.20;;;8.80;99.90;;;;;;5074061;28;20201;-75
2023/01/06 07:00:18;;;;;;;3.50;3.00;;;8.80;99.90;;;;;;5074198;28;20197;-74
2023/01/06 07:02:47;;;;;;;3.27;2.90;;;8.80;99.90;;;;;;5074184;28;20239;-75
2023/01/06 07:05:14;;;;;;;3.50;3.20;;;8.90;99.90;;;;;;5074053;28;20208;-74
2023/01/06 07:07:41;;;;;;;3.30;2.90;;;8.90;99.90;;;;;;5073987;28;20717;-73
2023/01/06 07:10:08;;;;;;;3.77;3.10;;;8.90;99.90;;;;;;5074080;28;20231;-73
2023/01/06 07:12:35;;;;;;;3.30;3.00;;;8.90;99.90;;;;;;5073980;28;20251;-73
2023/01/06 07:15:03;;;;;;;3.97;2.90;;;8.90;99.90;;;;;;5074379;28;20761;-73
2023/01/06 07:17:29;;;;;;;3.10;2.80;;;8.90;99.90;;;;;;5075111;28;20196;-74
2023/01/06 07:19:56;;;;;;;3.40;3.10;;;8.80;99.90;;;;;;5073749;28;20242;-74
2023/01/06 07:22:23;;;;;;;3.23;2.73;;;8.90;99.90;;;;;;5073535;28;20196;-74
2023/01/06 07:24:49;;;;;;;3.93;2.83;;;8.90;99.90;;;;;;5073706;28;20263;-75
2023/01/06 07:27:16;;;;;;;4.23;3.23;;;8.90;99.90;;;;;;5073732;28;20201;-74
2023/01/06 07:29:43;;;;;;;4.90;3.43;;;8.90;99.90;;;;;;5073455;28;20197;-74
2023/01/06 07:32:11;;;;;;;4.97;3.10;;;8.80;99.90;;;;;;5073456;28;20205;-74
2023/01/06 07:34:37;;;;;;;4.43;4.03;;;8.80;99.90;;;;;;5073411;28;20217;-74
2023/01/06 07:37:04;;;;;;;4.00;3.27;;;8.80;99.90;;;;;;5073362;28;20201;-75
2023/01/06 07:39:31;;;;;;;4.43;3.70;;;8.90;99.90;;;;;;5073600;28;20197;-75
2023/01/06 07:41:57;;;;;;;4.60;3.53;;;8.90;99.90;;;;;;5073450;28;20235;-74
2023/01/06 07:44:24;;;;;;;4.90;3.73;;;8.90;99.90;;;;;;5073341;28;20200;-75
2023/01/06 07:46:50;;;;;;;3.83;3.53;;;8.90;99.90;;;;;;5073355;28;20653;-74
2023/01/06 07:49:18;;;;;;;5.47;4.27;;;8.90;99.90;;;;;;5073104;28;20200;-75
2023/01/06 07:51:45;;;;;;;5.93;4.30;;;8.90;99.90;;;;;;5073136;28;20201;-74
2023/01/06 07:54:11;;;;;;;4.70;4.20;;;8.90;99.90;;;;;;5073147;28;20267;-74
2023/01/06 07:56:38;;;;;;;7.13;5.43;;;8.90;99.90;;;;;;5073196;28;20276;-74
2023/01/06 07:59:05;;;;;;;6.00;4.50;;;8.90;99.90;;;;;;5072991;28;20250;-75
2023/01/06 08:01:31;;;;;;;5.33;4.80;;;8.90;99.90;;;;;;5073135;28;20250;-74
2023/01/06 08:03:58;;;;;;;7.20;4.53;;;8.90;99.90;;;;;;5072937;28;20218;-74
2023/01/06 08:06:26;;;;;;;5.40;4.90;;;8.90;99.90;;;;;;5073291;28;20208;-74
2023/01/06 08:08:53;;;;;;;6.73;5.13;;;8.90;99.90;;;;;;5073078;28;20197;-74
2023/01/06 08:11:20;;;;;;;5.80;5.20;;;9.00;99.90;;;;;;5073029;28;20291;-74
2023/01/06 08:13:46;;;;;;;6.13;4.77;;;9.00;99.90;;;;;;5072970;28;20197;-74
2023/01/06 08:16:13;;;;;;;4.90;4.40;;;9.00;99.90;;;;;;5072972;28;20193;-75
2023/01/06 08:18:40;;;;;;;6.20;5.60;;;9.00;99.90;;;;;;5072695;28;20274;-75
2023/01/06 08:21:08;;;;;;;5.80;5.03;;;9.00;99.90;;;;;;5073134;28;20251;-74
2023/01/06 08:23:37;;;;;;;6.27;5.63;;;9.00;99.90;;;;;;5072689;28;20660;-75
2023/01/06 08:26:06;;;;;;;6.90;5.63;;;9.00;99.90;;;;;;5072606;28;20229;-76
2023/01/06 08:28:33;;;;;;;5.90;5.33;;;9.00;99.90;;;;;;5072801;28;20611;-75
2023/01/06 08:31:00;;;;;;;6.10;5.50;;;8.90;99.90;;;;;;5072716;28;20254;-77
2023/01/06 08:33:27;;;;;;;7.63;5.63;;;8.90;99.90;;;;;;5072983;28;20255;-75
2023/01/06 08:35:58;;;;;;;6.50;5.77;;;9.00;99.90;;;;;;5072774;28;20232;-75
2023/01/06 08:38:25;;;;;;;7.00;6.30;;;8.90;99.90;;;;;;5072799;28;20208;-75
2023/01/06 08:40:57;;;;;;;7.07;6.37;;;8.90;99.90;;;;;;5079096;28;20259;-74
2023/01/06 08:43:26;;;;;;;9.67;7.67;;;8.80;99.90;;;;;;5089894;28;20197;-76
2023/01/06 08:46:00;;;;;;;8.63;6.90;;;8.80;99.90;;;;;;5087466;28;20193;-76
2023/01/06 08:48:32;;;;;;;10.07;7.27;;;8.70;99.90;;;;;;5086833;28;20200;-77
2023/01/06 08:51:04;;;;;;;10.50;6.97;;;8.80;99.90;;;;;;5087178;28;20227;-79
2023/01/06 08:53:33;;;;;;;7.50;6.70;;;8.80;99.90;;;;;;5090962;28;20250;-78
2023/01/06 08:56:02;;;;;;;5.23;4.33;;;8.90;99.90;;;;;;5077354;28;20307;-78
2023/01/06 08:58:28;;;;;;;5.77;4.47;;;8.90;99.90;;;;;;5077572;28;20192;-79
2023/01/06 09:00:55;;;;;;;5.07;4.57;;;8.90;99.90;;;;;;5076603;28;20258;-79
2023/01/06 09:03:22;;;;;;;4.47;3.67;;;8.90;99.90;;;;;;5076767;28;20270;-78
2023/01/06 09:05:53;;;;;;;3.83;3.43;;;8.90;99.90;;;;;;5076462;28;20235;-79
2023/01/06 09:08:19;;;;;;;3.57;3.03;;;8.90;99.90;;;;;;5077280;28;20207;-79
2023/01/06 09:10:46;;;;;;;6.57;3.57;;;8.80;99.90;;;;;;5077162;28;20201;-79
2023/01/06 09:13:14;;;;;;;4.57;3.50;;;8.80;99.90;;;;;;5076671;28;20193;-79
2023/01/06 09:15:41;;;;;;;3.70;3.40;;;8.80;99.90;;;;;;5076608;28;20224;-78
2023/01/06 09:18:08;;;;;;;5.53;3.93;;;8.80;99.90;;;;;;5076615;28;20196;-79
2023/01/06 09:20:35;;;;;;;4.33;3.77;;;8.80;99.90;;;;;;5076443;28;20288;-78
2023/01/06 09:23:01;;;;;;;5.07;4.30;;;8.80;99.90;;;;;;5076262;28;20318;-78
2023/01/06 09:25:28;;;;;;;4.40;3.67;;;8.80;99.90;;;;;;5076120;28;20300;-79
2023/01/06 09:27:54;;;;;;;3.80;3.50;;;8.90;99.90;;;;;;5076531;28;20649;-78
2023/01/06 09:30:24;;;;;;;3.60;3.30;;;9.00;99.90;;;;;;5076821;28;20193;-77
2023/01/06 09:32:50;;;;;;;4.83;3.13;;;9.10;99.90;;;;;;5076238;28;20667;-77
2023/01/06 09:35:17;;;;;;;2.53;2.33;;;9.10;99.90;;;;;;5075933;28;20274;-77
2023/01/06 09:37:44;;;;;;;2.30;2.10;;;9.10;99.90;;;;;;5076168;28;20197;-78
2023/01/06 09:40:16;;;;;;;2.73;1.80;;;9.00;99.90;;;;;;5076317;28;20239;-77
2023/01/06 09:42:55;;;;;;;2.37;1.53;;;9.10;99.90;;;;;;5079799;28;20197;-73
2023/01/06 09:45:33;;;;;;;2.57;2.03;;;9.10;99.90;;;;;;5078370;28;20197;-76
2023/01/06 09:48:03;;;;;;;1.93;1.67;;;9.40;99.90;;;;;;5075575;28;20656;-76
2023/01/06 09:50:34;;;;;;;1.87;1.60;;;9.60;99.90;;;;;;5075720;28;20821;-77
2023/01/06 09:53:05;;;;;;;1.50;1.40;;;9.70;99.90;;;;;;5075756;28;20250;-78
2023/01/06 09:55:38;;;;;;;2.70;1.30;;;9.90;99.90;;;;;;5075564;28;20278;-77
2023/01/06 09:58:10;;;;;;;1.50;1.20;;;10.30;99.90;;;;;;5075605;28;20254;-78
2023/01/06 10:00:42;;;;;;;1.67;1.40;;;10.30;99.90;;;;;;5075548;28;20205;-75
2023/01/06 10:03:13;;;;;;;2.83;1.50;;;10.40;99.90;;;;;;5075576;28;20201;-76
2023/01/06 10:05:54;;;;;;;2.23;1.20;;;10.60;99.90;;;;;;5075248;28;20201;-75
2023/01/06 10:08:29;;;;;;;2.30;1.20;;;10.80;99.90;;;;;;5075471;28;20247;-76
2023/01/06 10:11:13;;;;;;;3.90;1.20;;;10.40;99.90;;;;;;5075481;28;20196;-75
2023/01/06 10:13:55;;;;;;;1.80;1.50;;;10.20;99.90;;;;;;5075251;28;20193;-74
2023/01/06 10:16:33;;;;;;;1.53;1.20;;;10.10;99.90;;;;;;5074808;28;20227;-72
2023/01/06 10:19:11;;;;;;;1.50;1.30;;;9.90;99.90;;;;;;5074955;28;20207;-75
2023/01/06 10:21:43;;;;;;;2.97;1.67;;;9.90;99.90;;;;;;5075214;28;20662;-76
2023/01/06 10:24:26;;;;;;;2.00;1.60;;;9.90;99.90;;;;;;5074900;28;20197;-77
2023/01/06 10:26:57;;;;;;;2.03;1.50;;;10.00;99.90;;;;;;5074909;28;20653;-77
2023/01/06 10:29:28;;;;;;;1.97;1.70;;;10.00;99.90;;;;;;5074954;28;20585;-77
2023/01/06 10:31:59;;;;;;;3.00;1.80;;;10.10;99.90;;;;;;5087821;28;20219;-80
2023/01/06 10:34:28;;;;;;;2.23;1.70;;;10.00;99.90;;;;;;5084235;28;20417;-79
2023/01/06 10:37:01;;;;;;;4.13;2.10;;;10.20;99.90;;;;;;5084269;28;20235;-84
2023/01/06 10:39:30;;;;;;;2.87;1.90;;;10.20;99.90;;;;;;5083084;28;20721;-79
2023/01/06 10:44:50;;;;;;;2.37;1.77;;;10.50;99.90;;;;;;5079017;28;20278;-77
2023/01/06 10:47:24;;;;;;;1.60;1.50;;;10.50;99.90;;;;;;5077678;28;20657;-77
2023/01/06 10:49:51;;;;;;;4.63;2.20;;;10.60;99.90;;;;;;5077409;28;20647;-78
2023/01/06 10:52:19;;;;;;;10.87;5.20;;;10.60;99.90;;;;;;5078857;28;20607;-79
2023/01/06 10:54:46;;;;;;;17.07;10.60;;;10.60;99.90;;;;;;5073994;28;20686;-74
2023/01/06 10:57:21;;;;;;;1.80;1.70;;;11.50;99.90;;;;;;5073780;28;20238;-78
2023/01/06 11:00:14;;;;;;;2.27;1.60;;;13.10;99.90;;;;;;5074220;28;20262;-78
2023/01/06 11:02:47;;;;;;;1.80;1.50;;;14.40;99.90;;;;;;5074043;28;20197;-78
2023/01/06 11:05:16;;;;;;;1.70;1.50;;;13.50;99.90;;;;;;5073303;28;20197;-77
2023/01/06 11:07:49;;;;;;;1.67;1.40;;;13.70;99.90;;;;;;5073909;28;20197;-76
2023/01/06 11:10:27;;;;;;;1.73;1.33;;;13.80;99.90;;;;;;5073971;28;20405;-77
2023/01/06 11:12:56;;;;;;;4.00;1.80;;;13.00;99.90;;;;;;5073920;28;20197;-76
2023/01/06 11:15:36;;;;;;;2.00;1.80;;;12.90;99.90;;;;;;5073539;28;20216;-74
2023/01/06 11:18:05;;;;;;;3.70;2.73;;;12.50;99.90;;;;;;5073678;28;20656;-77
2023/01/06 11:20:34;;;;;;;4.10;3.70;;;11.80;99.90;;;;;;5073612;28;20657;-77
2023/01/06 11:23:18;;;;;;;3.83;2.87;;;11.30;99.90;;;;;;5073662;28;20201;-77
2023/01/06 11:26:09;;;;;;;3.07;2.00;;;11.10;99.90;;;;;;5073660;28;20217;-78
2023/01/06 11:28:35;;;;;;;2.57;1.87;;;11.00;99.90;;;;;;5074298;28;20197;-78
2023/01/06 11:31:05;;;;;;;2.30;1.40;;;10.90;99.90;;;;;;5073851;28;20189;-79
2023/01/06 11:33:37;;;;;;;2.13;1.33;;;10.70;99.90;;;;;;5073729;28;20201;-75
2023/01/06 11:36:09;;;;;;;2.00;1.80;;;10.40;99.90;;;;;;5073069;28;20267;-77
2023/01/06 11:38:44;;;;;;;1.60;1.50;;;10.40;99.90;;;;;;5073181;28;20204;-77
2023/01/06 11:41:12;;;;;;;1.87;1.50;;;10.60;99.90;;;;;;5073334;28;20196;-76
2023/01/06 11:43:44;;;;;;;2.33;1.67;;;10.50;99.90;;;;;;5073113;28;20199;-75
2023/01/06 11:46:13;;;;;;;3.87;1.60;;;10.50;99.90;;;;;;5073187;28;20200;-75
2023/01/06 11:48:46;;;;;;;2.77;1.60;;;10.40;99.90;;;;;;5072853;28;20651;-75
2023/01/06 11:51:13;;;;;;;3.07;1.63;;;10.30;99.90;;;;;;5073693;28;20250;-80
2023/01/06 11:53:54;;;;;;;1.83;1.23;;;10.10;99.90;;;;;;5074169;28;20201;-79
2023/01/06 11:56:20;;;;;;;1.83;1.30;;;10.00;99.90;;;;;;5073720;28;20228;-76
2023/01/06 11:58:55;;;;;;;5.57;3.53;;;10.00;99.90;;;;;;5072982;28;20672;-76
2023/01/06 12:01:29;;;;;;;3.50;2.40;;;10.10;99.90;;;;;;5073297;28;20273;-76
2023/01/06 12:04:02;;;;;;;1.70;1.60;;;10.00;99.90;;;;;;5073335;28;20197;-77
2023/01/06 12:06:34;;;;;;;4.03;2.00;;;9.90;99.90;;;;;;5073498;28;20648;-77
2023/01/06 12:09:05;;;;;;;2.10;1.50;;;9.90;99.90;;;;;;5073457;28;20193;-77
2023/01/06 12:11:45;;;;;;;1.93;1.40;;;9.70;99.90;;;;;;5073339;28;20266;-77
2023/01/06 12:14:16;;;;;;;1.73;1.40;;;9.70;99.90;;;;;;5073111;28;20207;-78
2023/01/06 12:16:55;;;;;;;1.97;1.60;;;9.70;99.90;;;;;;5071932;28;20267;-79
2023/01/06 12:19:29;;;;;;;1.77;1.37;;;9.60;99.90;;;;;;5073435;28;20247;-78
2023/01/06 12:21:57;;;;;;;3.27;1.40;;;9.60;99.90;;;;;;5073583;28;20262;-78
2023/01/06 12:24:26;;;;;;;3.17;1.33;;;9.60;99.90;;;;;;5072703;28;20228;-80
2023/01/06 12:26:53;;;;;;;1.53;1.30;;;9.50;99.90;;;;;;5055350;28;20223;-78
2023/01/06 12:29:21;;;;;;;1.60;1.50;;;9.50;99.90;;;;;;5073798;28;20196;-78
2023/01/06 12:31:56;;;;;;;1.33;1.23;;;9.50;99.90;;;;;;5073697;28;20205;-79
2023/01/06 12:34:30;;;;;;;1.70;1.47;;;9.50;99.90;;;;;;5073698;28;20200;-78
2023/01/06 12:37:04;;;;;;;3.33;1.40;;;9.50;99.90;;;;;;5072920;28;20314;-78
2023/01/06 12:39:40;;;;;;;3.27;1.40;;;9.60;99.90;;;;;;5073145;28;20201;-78
2023/01/06 12:42:18;;;;;;;2.07;1.50;;;9.50;99.90;;;;;;5072979;28;20207;-78
2023/01/06 12:44:50;;;;;;;2.47;1.70;;;9.60;99.90;;;;;;5072818;28;20275;-78
2023/01/06 12:47:24;;;;;;;1.60;1.30;;;9.60;99.90;;;;;;5072873;28;20258;-78
2023/01/06 12:49:56;;;;;;;1.90;1.50;;;9.60;99.90;;;;;;5070419;28;21017;-78
2023/01/06 12:52:27;;;;;;;4.87;1.50;;;9.50;99.90;;;;;;5073128;28;20259;-78
2023/01/06 12:54:57;;;;;;;2.53;1.70;;;9.50;99.90;;;;;;5073468;28;20193;-79
2023/01/06 12:57:35;;;;;;;3.83;1.80;;;9.50;99.90;;;;;;5074344;28;20232;-75
2023/01/06 13:00:16;;;;;;;2.57;1.50;;;9.50;99.90;;;;;;5077861;28;20204;-74
2023/01/06 13:02:54;;;;;;;1.77;1.40;;;9.50;99.90;;;;;;5074044;28;20593;-74
2023/01/06 13:05:47;;;;;;;3.30;1.50;;;9.60;99.90;;;;;;5072830;28;20197;-75
2023/01/06 13:08:26;;;;;;;7.53;4.70;;;9.50;99.90;;;;;;5062751;28;20193;-75
2023/01/06 13:11:00;;;;;;;4.27;3.40;;;9.50;99.90;;;;;;5072404;28;20201;-76
2023/01/06 13:13:38;;;;;;;2.10;1.90;;;9.60;99.90;;;;;;5072148;28;20193;-76
2023/01/06 13:16:13;;;;;;;3.03;1.40;;;9.60;99.90;;;;;;5072259;28;20277;-76
2023/01/06 13:18:51;;;;;;;1.57;1.23;;;9.60;99.90;;;;;;5072072;28;20254;-76